createdAt,value
2018-05-04T00:00:33.448Z,987.32
2018-05-04T00:01:33.633Z,987.36
2018-05-04T00:02:33.821Z,987.37
2018-05-04T00:03:34.005Z,987.37
2018-05-04T00:04:34.192Z,987.35
2018-05-04T00:05:34.377Z,987.36
2018-05-04T00:06:34.562Z,987.38
2018-05-04T00:07:34.749Z,987.39
2018-05-04T00:08:34.935Z,987.41
2018-05-04T00:09:35.121Z,987.39
2018-05-04T00:10:35.305Z,987.44
2018-05-04T00:11:35.492Z,987.41
2018-05-04T00:12:35.678Z,987.39
2018-05-04T00:13:35.865Z,987.40
2018-05-04T00:14:36.050Z,987.43
2018-05-04T00:15:36.239Z,987.38
2018-05-04T00:16:36.427Z,987.47
2018-05-04T00:17:36.605Z,987.51
2018-05-04T00:18:36.789Z,987.51
2018-05-04T00:19:36.974Z,987.52
2018-05-04T00:20:37.159Z,987.58
2018-05-04T00:21:37.346Z,987.58
2018-05-04T00:22:37.531Z,987.59
2018-05-04T00:23:37.716Z,987.60
2018-05-04T00:24:37.902Z,987.57
2018-05-04T00:25:38.091Z,987.61
2018-05-04T00:26:38.272Z,987.58
2018-05-04T00:27:38.457Z,987.58
2018-05-04T00:28:38.643Z,987.58
2018-05-04T00:29:38.829Z,987.58
2018-05-04T00:30:39.013Z,987.62
2018-05-04T00:31:39.198Z,987.63
2018-05-04T00:32:39.384Z,987.63
2018-05-04T00:33:39.569Z,987.63
2018-05-04T00:34:39.756Z,987.61
2018-05-04T00:35:39.946Z,987.61
2018-05-04T00:36:40.126Z,987.61
2018-05-04T00:37:40.316Z,987.65
2018-05-04T00:38:40.496Z,987.59
2018-05-04T00:39:40.683Z,987.67
2018-05-04T00:40:40.880Z,987.60
2018-05-04T00:41:41.053Z,987.58
2018-05-04T00:42:41.240Z,987.59
2018-05-04T00:43:41.424Z,987.59
2018-05-04T00:44:41.609Z,987.60
2018-05-04T00:45:41.794Z,987.58
2018-05-04T00:46:41.976Z,987.63
2018-05-04T00:47:42.166Z,987.61
2018-05-04T00:48:42.348Z,987.61
2018-05-04T00:49:42.533Z,987.58
2018-05-04T00:50:42.718Z,987.60
2018-05-04T00:51:42.903Z,987.56
2018-05-04T00:52:43.089Z,987.54
2018-05-04T00:53:43.274Z,987.56
2018-05-04T00:54:43.459Z,987.54
2018-05-04T00:55:43.644Z,987.54
2018-05-04T00:56:43.829Z,987.58
2018-05-04T00:57:44.013Z,987.58
2018-05-04T00:58:44.198Z,987.58
2018-05-04T00:59:44.382Z,987.56
2018-05-04T01:00:44.566Z,987.61
2018-05-04T01:01:44.751Z,987.59
2018-05-04T01:02:44.939Z,987.57
2018-05-04T01:03:45.123Z,987.60
2018-05-04T01:04:45.311Z,987.61
2018-05-04T01:05:45.495Z,987.59
2018-05-04T01:06:45.678Z,987.66
2018-05-04T01:07:45.864Z,987.71
2018-05-04T01:08:46.051Z,987.66
2018-05-04T01:09:46.235Z,987.66
2018-05-04T01:10:46.419Z,987.66
2018-05-04T01:11:46.605Z,987.67
2018-05-04T01:12:46.789Z,987.65
2018-05-04T01:13:46.974Z,987.62
2018-05-04T01:14:47.159Z,987.59
2018-05-04T01:15:47.342Z,987.59
2018-05-04T01:16:47.527Z,987.57
2018-05-04T01:17:47.715Z,987.57
2018-05-04T01:18:47.900Z,987.54
2018-05-04T01:19:48.088Z,987.50
2018-05-04T01:20:48.270Z,987.47
2018-05-04T01:21:48.455Z,987.49
2018-05-04T01:22:48.640Z,987.45
2018-05-04T01:23:48.826Z,987.39
2018-05-04T01:24:49.011Z,987.41
2018-05-04T01:25:49.194Z,987.38
2018-05-04T01:26:49.378Z,987.39
2018-05-04T01:27:49.568Z,987.44
2018-05-04T01:28:49.747Z,987.43
2018-05-04T01:29:49.933Z,987.42
2018-05-04T01:30:50.118Z,987.42
2018-05-04T01:31:50.390Z,987.45
2018-05-04T01:32:50.488Z,987.44
2018-05-04T01:33:50.676Z,987.39
2018-05-04T01:34:50.857Z,987.37
2018-05-04T01:35:51.042Z,987.40
2018-05-04T01:36:51.226Z,987.34
2018-05-04T01:37:51.412Z,987.31
2018-05-04T01:38:51.597Z,987.35
2018-05-04T01:39:51.784Z,987.30
2018-05-04T01:40:51.970Z,987.31
2018-05-04T01:41:52.155Z,987.32
2018-05-04T01:42:52.339Z,987.33
2018-05-04T01:43:52.524Z,987.34
2018-05-04T01:44:52.709Z,987.33
2018-05-04T01:45:52.894Z,987.35
2018-05-04T01:46:53.079Z,987.38
2018-05-04T01:47:53.262Z,987.35
2018-05-04T01:48:53.447Z,987.32
2018-05-04T01:49:53.631Z,987.35
2018-05-04T01:50:53.815Z,987.30
2018-05-04T01:51:53.999Z,987.28
2018-05-04T01:52:54.185Z,987.30
2018-05-04T01:53:54.368Z,987.26
2018-05-04T01:54:54.556Z,987.27
2018-05-04T01:55:54.735Z,987.26
2018-05-04T01:56:54.921Z,987.25
2018-05-04T01:57:55.105Z,987.23
2018-05-04T01:58:55.292Z,987.23
2018-05-04T01:59:55.474Z,987.27
2018-05-04T02:00:55.658Z,987.31
2018-05-04T02:01:55.849Z,987.26
2018-05-04T02:02:56.028Z,987.28
2018-05-04T02:03:56.211Z,987.29
2018-05-04T02:04:56.395Z,987.35
2018-05-04T02:05:56.578Z,987.31
2018-05-04T02:06:56.768Z,987.32
2018-05-04T02:07:56.954Z,987.37
2018-05-04T02:08:57.133Z,987.41
2018-05-04T02:09:57.317Z,987.39
2018-05-04T02:10:57.502Z,987.35
2018-05-04T02:11:57.687Z,987.39
2018-05-04T02:12:57.871Z,987.35
2018-05-04T02:13:58.055Z,987.36
2018-05-04T02:14:58.237Z,987.37
2018-05-04T02:15:58.423Z,987.38
2018-05-04T02:16:58.611Z,987.37
2018-05-04T02:17:58.792Z,987.34
2018-05-04T02:18:58.977Z,987.34
2018-05-04T02:19:59.161Z,987.34
2018-05-04T02:20:59.347Z,987.32
2018-05-04T02:21:59.534Z,987.36
2018-05-04T02:22:59.714Z,987.38
2018-05-04T02:23:59.899Z,987.40
2018-05-04T02:25:00.084Z,987.40
2018-05-04T02:26:00.269Z,987.40
2018-05-04T02:27:00.454Z,987.36
2018-05-04T02:28:00.643Z,987.41
2018-05-04T02:29:00.824Z,987.41
2018-05-04T02:30:01.015Z,987.39
2018-05-04T02:31:01.192Z,987.41
2018-05-04T02:32:01.382Z,987.39
2018-05-04T02:33:01.564Z,987.37
2018-05-04T02:34:01.748Z,987.43
2018-05-04T02:35:01.936Z,987.47
2018-05-04T02:36:02.122Z,987.47
2018-05-04T02:37:02.300Z,987.42
2018-05-04T02:38:02.485Z,987.46
2018-05-04T02:39:02.670Z,987.46
2018-05-04T02:40:02.853Z,987.47
2018-05-04T02:41:03.037Z,987.49
2018-05-04T02:42:03.223Z,987.51
2018-05-04T02:43:03.406Z,987.50
2018-05-04T02:44:03.590Z,987.55
2018-05-04T02:45:03.777Z,987.56
2018-05-04T02:46:03.960Z,987.52
2018-05-04T02:47:04.147Z,987.55
2018-05-04T02:48:04.328Z,987.56
2018-05-04T02:49:04.511Z,987.53
2018-05-04T02:50:04.694Z,987.57
2018-05-04T02:51:05.715Z,987.56
2018-05-04T02:52:05.216Z,987.59
2018-05-04T02:53:05.385Z,987.59
2018-05-04T02:54:05.442Z,987.57
2018-05-04T02:55:05.629Z,987.57
2018-05-04T02:56:05.810Z,987.59
2018-05-04T02:57:05.995Z,987.60
2018-05-04T02:58:06.179Z,987.58
2018-05-04T02:59:06.364Z,987.59
2018-05-04T03:00:06.555Z,987.59
2018-05-04T03:01:06.728Z,987.62
2018-05-04T03:02:06.917Z,987.59
2018-05-04T03:03:07.096Z,987.60
2018-05-04T03:04:07.281Z,987.62
2018-05-04T03:05:07.464Z,987.60
2018-05-04T03:06:07.648Z,987.60
2018-05-04T03:07:07.830Z,987.60
2018-05-04T03:08:08.018Z,987.58
2018-05-04T03:09:08.201Z,987.58
2018-05-04T03:10:08.386Z,987.60
2018-05-04T03:11:08.572Z,987.54
2018-05-04T03:12:08.756Z,987.63
2018-05-04T03:13:08.939Z,987.63
2018-05-04T03:14:09.123Z,987.66
2018-05-04T03:15:09.312Z,987.65
2018-05-04T03:16:09.492Z,987.66
2018-05-04T03:17:09.675Z,987.68
2018-05-04T03:18:09.858Z,987.67
2018-05-04T03:19:10.043Z,987.60
2018-05-04T03:20:10.226Z,987.64
2018-05-04T03:21:10.411Z,987.62
2018-05-04T03:22:10.595Z,987.64
2018-05-04T03:23:10.784Z,987.57
2018-05-04T03:24:10.965Z,987.59
2018-05-04T03:25:11.149Z,987.58
2018-05-04T03:26:11.334Z,987.62
2018-05-04T03:27:11.516Z,987.61
2018-05-04T03:28:11.702Z,987.63
2018-05-04T03:29:11.887Z,987.61
2018-05-04T03:30:12.070Z,987.67
2018-05-04T03:31:12.255Z,987.66
2018-05-04T03:32:12.439Z,987.68
2018-05-04T03:33:12.621Z,987.68
2018-05-04T03:34:12.805Z,987.72
2018-05-04T03:35:12.988Z,987.65
2018-05-04T03:36:13.170Z,987.67
2018-05-04T03:37:13.357Z,987.67
2018-05-04T03:38:13.541Z,987.64
2018-05-04T03:39:13.723Z,987.68
2018-05-04T03:40:13.909Z,987.67
2018-05-04T03:41:14.093Z,987.68
2018-05-04T03:42:14.278Z,987.69
2018-05-04T03:43:14.463Z,987.67
2018-05-04T03:44:14.646Z,987.70
2018-05-04T03:45:14.832Z,987.74
2018-05-04T03:46:15.016Z,987.72
2018-05-04T03:47:15.203Z,987.70
2018-05-04T03:48:15.384Z,987.69
2018-05-04T03:49:15.568Z,987.68
2018-05-04T03:50:15.752Z,987.71
2018-05-04T03:51:15.937Z,987.70
2018-05-04T03:52:16.119Z,987.71
2018-05-04T03:53:16.305Z,987.74
2018-05-04T03:54:16.489Z,987.76
2018-05-04T03:55:16.675Z,987.78
2018-05-04T03:56:16.858Z,987.78
2018-05-04T03:57:17.044Z,987.76
2018-05-04T03:58:17.230Z,987.76
2018-05-04T03:59:17.412Z,987.77
2018-05-04T04:00:17.601Z,987.78
2018-05-04T04:01:17.781Z,987.79
2018-05-04T04:02:17.964Z,987.78
2018-05-04T04:03:18.150Z,987.78
2018-05-04T04:04:18.332Z,987.82
2018-05-04T04:05:18.516Z,987.85
2018-05-04T04:06:18.700Z,987.83
2018-05-04T04:07:18.884Z,987.86
2018-05-04T04:08:19.068Z,987.94
2018-05-04T04:09:19.254Z,987.92
2018-05-04T04:10:19.440Z,987.94
2018-05-04T04:11:19.624Z,987.93
2018-05-04T04:12:19.808Z,987.92
2018-05-04T04:13:19.993Z,987.89
2018-05-04T04:14:20.175Z,987.86
2018-05-04T04:15:20.361Z,987.89
2018-05-04T04:16:20.544Z,987.90
2018-05-04T04:17:20.730Z,987.92
2018-05-04T04:18:20.916Z,987.91
2018-05-04T04:19:21.101Z,987.95
2018-05-04T04:20:21.284Z,988.00
2018-05-04T04:21:21.467Z,988.05
2018-05-04T04:22:21.654Z,988.06
2018-05-04T04:23:21.843Z,988.08
2018-05-04T04:24:22.025Z,988.09
2018-05-04T04:25:22.210Z,988.15
2018-05-04T04:26:22.399Z,988.18
2018-05-04T04:27:22.582Z,988.15
2018-05-04T04:28:22.771Z,988.18
2018-05-04T04:29:22.955Z,988.17
2018-05-04T04:30:23.141Z,988.19
2018-05-04T04:31:23.325Z,988.21
2018-05-04T04:32:23.513Z,988.21
2018-05-04T04:33:23.697Z,988.22
2018-05-04T04:34:23.884Z,988.29
2018-05-04T04:35:24.069Z,988.29
2018-05-04T04:36:24.246Z,988.35
2018-05-04T04:37:24.437Z,988.36
2018-05-04T04:38:24.620Z,988.36
2018-05-04T04:39:24.808Z,988.37
2018-05-04T04:40:24.997Z,988.44
2018-05-04T04:41:25.183Z,988.46
2018-05-04T04:42:25.376Z,988.49
2018-05-04T04:43:25.550Z,988.53
2018-05-04T04:44:25.737Z,988.55
2018-05-04T04:45:25.925Z,988.57
2018-05-04T04:46:26.112Z,988.56
2018-05-04T04:47:26.301Z,988.60
2018-05-04T04:48:26.487Z,988.60
2018-05-04T04:49:26.674Z,988.61
2018-05-04T04:50:26.862Z,988.67
2018-05-04T04:51:27.048Z,988.66
2018-05-04T04:52:27.246Z,988.65
2018-05-04T04:53:27.428Z,988.63
2018-05-04T04:54:27.617Z,988.65
2018-05-04T04:55:27.806Z,988.66
2018-05-04T04:56:27.995Z,988.66
2018-05-04T04:57:28.186Z,988.70
2018-05-04T04:58:28.373Z,988.68
2018-05-04T04:59:28.559Z,988.66
2018-05-04T05:00:28.749Z,988.66
2018-05-04T05:01:28.937Z,988.68
2018-05-04T05:02:29.128Z,988.67
2018-05-04T05:03:29.315Z,988.67
2018-05-04T05:04:29.505Z,988.69
2018-05-04T05:05:29.694Z,988.69
2018-05-04T05:06:29.885Z,988.72
2018-05-04T05:07:30.073Z,988.69
2018-05-04T05:08:30.268Z,988.70
2018-05-04T05:09:30.457Z,988.73
2018-05-04T05:10:30.650Z,988.74
2018-05-04T05:11:30.837Z,988.74
2018-05-04T05:12:31.028Z,988.80
2018-05-04T05:13:31.245Z,988.80
2018-05-04T05:14:31.411Z,988.76
2018-05-04T05:15:31.599Z,988.80
2018-05-04T05:16:31.791Z,988.80
2018-05-04T05:17:31.985Z,988.76
2018-05-04T05:18:32.179Z,988.75
2018-05-04T05:19:32.371Z,988.77
2018-05-04T05:20:32.563Z,988.75
2018-05-04T05:21:32.754Z,988.77
2018-05-04T05:22:32.946Z,988.76
2018-05-04T05:23:33.139Z,988.80
2018-05-04T05:24:33.329Z,988.81
2018-05-04T05:25:33.521Z,988.75
2018-05-04T05:26:33.714Z,988.75
2018-05-04T05:27:33.906Z,988.76
2018-05-04T05:28:34.100Z,988.78
2018-05-04T05:29:34.297Z,988.80
2018-05-04T05:30:34.485Z,988.84
2018-05-04T05:31:34.681Z,988.88
2018-05-04T05:32:34.871Z,988.94
2018-05-04T05:33:35.063Z,988.93
2018-05-04T05:34:35.256Z,988.96
2018-05-04T05:35:35.452Z,988.95
2018-05-04T05:36:35.642Z,988.99
2018-05-04T05:37:35.834Z,989.01
2018-05-04T05:38:36.026Z,989.00
2018-05-04T05:39:36.218Z,989.07
2018-05-04T05:40:36.411Z,989.04
2018-05-04T05:41:36.606Z,989.02
2018-05-04T05:42:36.796Z,988.94
2018-05-04T05:43:36.990Z,988.96
2018-05-04T05:44:37.185Z,988.93
2018-05-04T05:45:37.379Z,988.95
2018-05-04T05:46:37.575Z,988.97
2018-05-04T05:47:37.770Z,988.95
2018-05-04T05:48:37.965Z,988.93
2018-05-04T05:49:38.160Z,988.97
2018-05-04T05:50:38.357Z,988.98
2018-05-04T05:51:38.549Z,988.93
2018-05-04T05:52:38.744Z,988.95
2018-05-04T05:53:38.938Z,988.94
2018-05-04T05:54:39.168Z,988.96
2018-05-04T05:55:39.330Z,988.93
2018-05-04T05:56:39.525Z,988.89
2018-05-04T05:57:39.717Z,988.95
2018-05-04T05:58:39.917Z,988.90
2018-05-04T05:59:40.110Z,988.96
2018-05-04T06:00:40.308Z,989.00
2018-05-04T06:01:40.504Z,988.95
2018-05-04T06:02:40.699Z,988.97
2018-05-04T06:03:40.895Z,989.01
2018-05-04T06:04:41.103Z,988.98
2018-05-04T06:05:41.286Z,989.02
2018-05-04T06:06:41.490Z,989.03
2018-05-04T06:07:41.682Z,989.07
2018-05-04T06:08:41.877Z,989.04
2018-05-04T06:09:42.076Z,989.05
2018-05-04T06:10:42.271Z,989.03
2018-05-04T06:11:42.466Z,989.09
2018-05-04T06:12:42.667Z,989.06
2018-05-04T06:13:42.858Z,989.10
2018-05-04T06:14:43.052Z,989.11
2018-05-04T06:15:43.250Z,989.14
2018-05-04T06:16:43.447Z,989.07
2018-05-04T06:17:43.646Z,989.09
2018-05-04T06:18:43.839Z,989.12
2018-05-04T06:19:44.039Z,989.13
2018-05-04T06:20:44.240Z,989.15
2018-05-04T06:21:44.433Z,989.14
2018-05-04T06:22:44.631Z,989.09
2018-05-04T06:23:44.828Z,989.13
2018-05-04T06:24:45.025Z,989.21
2018-05-04T06:25:45.220Z,989.20
2018-05-04T06:26:45.418Z,989.20
2018-05-04T06:27:45.615Z,989.18
2018-05-04T06:28:45.811Z,989.25
2018-05-04T06:29:46.010Z,989.21
2018-05-04T06:30:46.206Z,989.15
2018-05-04T06:31:46.403Z,989.17
2018-05-04T06:32:46.602Z,989.17
2018-05-04T06:33:46.821Z,989.16
2018-05-04T06:34:47.001Z,989.16
2018-05-04T06:35:47.195Z,989.19
2018-05-04T06:36:47.391Z,989.19
2018-05-04T06:37:47.589Z,989.22
2018-05-04T06:38:47.787Z,989.21
2018-05-04T06:39:47.993Z,989.19
2018-05-04T06:40:48.184Z,989.23
2018-05-04T06:41:48.382Z,989.22
2018-05-04T06:42:48.580Z,989.26
2018-05-04T06:43:48.781Z,989.29
2018-05-04T06:44:48.979Z,989.24
2018-05-04T06:45:49.192Z,989.26
2018-05-04T06:46:49.381Z,989.30
2018-05-04T06:47:49.575Z,989.23
2018-05-04T06:48:49.774Z,989.22
2018-05-04T06:49:49.974Z,989.21
2018-05-04T06:50:50.173Z,989.16
2018-05-04T06:51:50.372Z,989.20
2018-05-04T06:52:50.572Z,989.20
2018-05-04T06:53:50.770Z,989.21
2018-05-04T06:54:50.974Z,989.25
2018-05-04T06:55:51.171Z,989.25
2018-05-04T06:56:51.370Z,989.27
2018-05-04T06:57:51.571Z,989.27
2018-05-04T06:58:51.772Z,989.27
2018-05-04T06:59:51.974Z,989.29
2018-05-04T07:00:52.174Z,989.32
2018-05-04T07:01:52.372Z,989.31
2018-05-04T07:02:52.571Z,989.28
2018-05-04T07:03:52.774Z,989.35
2018-05-04T07:04:52.973Z,989.37
2018-05-04T07:05:53.175Z,989.37
2018-05-04T07:06:53.371Z,989.42
2018-05-04T07:07:53.573Z,989.40
2018-05-04T07:08:53.778Z,989.36
2018-05-04T07:09:53.971Z,989.45
2018-05-04T07:10:54.170Z,989.44
2018-05-04T07:11:54.372Z,989.45
2018-05-04T07:12:54.573Z,989.51
2018-05-04T07:13:54.769Z,989.45
2018-05-04T07:14:54.973Z,989.47
2018-05-04T07:15:55.171Z,989.35
2018-05-04T07:16:55.371Z,989.42
2018-05-04T07:17:55.572Z,989.47
2018-05-04T07:18:55.809Z,989.36
2018-05-04T07:19:55.971Z,989.54
2018-05-04T07:20:56.173Z,989.52
2018-05-04T07:21:56.377Z,989.54
2018-05-04T07:22:56.577Z,989.53
2018-05-04T07:23:56.776Z,989.50
2018-05-04T07:24:56.975Z,989.60
2018-05-04T07:25:57.176Z,989.62
2018-05-04T07:26:57.377Z,989.60
2018-05-04T07:27:57.582Z,989.66
2018-05-04T07:28:57.775Z,989.58
2018-05-04T07:29:57.975Z,989.48
2018-05-04T07:30:58.174Z,989.50
2018-05-04T07:31:58.376Z,989.57
2018-05-04T07:32:58.576Z,989.51
2018-05-04T07:33:58.774Z,989.53
2018-05-04T07:34:58.976Z,989.54
2018-05-04T07:35:59.237Z,989.56
2018-05-04T07:36:59.379Z,989.62
2018-05-04T07:37:59.577Z,989.49
2018-05-04T07:38:59.776Z,989.67
2018-05-04T07:39:59.974Z,989.60
2018-05-04T07:41:00.173Z,989.63
2018-05-04T07:42:00.372Z,989.63
2018-05-04T07:43:00.573Z,989.68
2018-05-04T07:44:00.771Z,989.55
2018-05-04T07:45:00.971Z,989.71
2018-05-04T07:46:01.170Z,989.61
2018-05-04T07:47:01.368Z,989.68
2018-05-04T07:48:01.567Z,989.66
2018-05-04T07:49:01.765Z,989.60
2018-05-04T07:50:01.963Z,989.69
2018-05-04T07:51:02.165Z,989.65
2018-05-04T07:52:02.368Z,989.67
2018-05-04T07:53:02.562Z,989.67
2018-05-04T07:54:02.761Z,989.74
2018-05-04T07:55:02.958Z,989.85
2018-05-04T07:56:03.157Z,989.81
2018-05-04T07:57:03.354Z,989.90
2018-05-04T07:58:03.553Z,989.85
2018-05-04T07:59:03.752Z,989.99
2018-05-04T08:00:03.952Z,989.98
2018-05-04T08:01:04.149Z,989.88
2018-05-04T08:02:04.350Z,990.05
2018-05-04T08:03:04.550Z,989.97
2018-05-04T08:04:04.754Z,990.18
2018-05-04T08:05:04.949Z,990.02
2018-05-04T08:06:05.149Z,990.11
2018-05-04T08:07:05.349Z,990.05
2018-05-04T08:08:05.543Z,990.14
2018-05-04T08:09:05.742Z,990.14
2018-05-04T08:10:05.941Z,990.28
2018-05-04T08:11:06.141Z,990.39
2018-05-04T08:12:06.338Z,990.27
2018-05-04T08:13:06.536Z,990.59
2018-05-04T08:14:06.736Z,990.78
2018-05-04T08:15:06.932Z,991.34
2018-05-04T08:16:07.132Z,992.26
2018-05-04T08:17:07.335Z,991.95
2018-05-04T08:18:07.529Z,991.63
2018-05-04T08:19:07.727Z,991.11
2018-05-04T08:20:07.931Z,990.69
2018-05-04T08:21:08.123Z,990.65
2018-05-04T08:22:08.321Z,990.42
2018-05-04T08:23:08.519Z,990.50
2018-05-04T08:24:08.720Z,990.48
2018-05-04T08:25:08.917Z,990.39
2018-05-04T08:26:09.115Z,990.30
2018-05-04T08:27:09.313Z,990.30
2018-05-04T08:28:09.512Z,990.24
2018-05-04T08:29:09.709Z,990.07
2018-05-04T08:30:09.908Z,990.05
2018-05-04T08:31:10.105Z,990.04
2018-05-04T08:32:10.305Z,990.00
2018-05-04T08:33:10.503Z,989.97
2018-05-04T08:34:10.704Z,990.08
2018-05-04T08:35:10.913Z,990.03
2018-05-04T08:36:11.095Z,990.20
2018-05-04T08:37:11.293Z,989.90
2018-05-04T08:38:11.490Z,989.81
2018-05-04T08:39:11.713Z,990.04
2018-05-04T08:40:11.885Z,989.93
2018-05-04T08:41:12.083Z,989.97
2018-05-04T08:42:12.282Z,990.14
2018-05-04T08:43:12.489Z,990.03
2018-05-04T08:44:12.678Z,989.88
2018-05-04T08:45:12.874Z,989.96
2018-05-04T08:46:13.073Z,989.76
2018-05-04T08:47:13.267Z,989.97
2018-05-04T08:48:13.533Z,989.91
2018-05-04T08:49:13.663Z,989.66
2018-05-04T08:50:13.857Z,989.67
2018-05-04T08:51:14.077Z,989.62
2018-05-04T08:52:14.253Z,989.88
2018-05-04T08:53:14.448Z,989.87
2018-05-04T08:54:14.698Z,989.83
2018-05-04T08:55:14.844Z,989.87
2018-05-04T08:56:15.042Z,989.92
2018-05-04T08:57:15.323Z,989.98
2018-05-04T08:58:15.432Z,990.34
2018-05-04T08:59:15.630Z,990.34
2018-05-04T09:00:15.827Z,990.26
2018-05-04T09:01:16.023Z,990.15
2018-05-04T09:02:16.220Z,989.99
2018-05-04T09:03:16.418Z,989.73
2018-05-04T09:04:16.613Z,989.58
2018-05-04T09:05:16.896Z,989.81
2018-05-04T09:06:17.005Z,989.77
2018-05-04T09:07:17.200Z,989.63
2018-05-04T09:08:17.396Z,989.69
2018-05-04T09:09:17.592Z,989.72
2018-05-04T09:10:17.787Z,989.65
2018-05-04T09:11:17.983Z,989.68
2018-05-04T09:12:18.179Z,989.67
2018-05-04T09:13:18.376Z,989.61
2018-05-04T09:14:18.573Z,989.65
2018-05-04T09:15:18.790Z,989.58
2018-05-04T09:16:18.961Z,989.59
2018-05-04T09:17:19.157Z,989.53
2018-05-04T09:18:19.352Z,989.52
2018-05-04T09:19:19.547Z,989.45
2018-05-04T09:20:19.745Z,989.37
2018-05-04T09:21:19.939Z,989.36
2018-05-04T09:22:20.133Z,989.49
2018-05-04T09:23:20.333Z,989.36
2018-05-04T09:24:20.526Z,989.34
2018-05-04T09:25:20.806Z,989.32
2018-05-04T09:26:20.917Z,989.46
2018-05-04T09:27:21.110Z,989.42
2018-05-04T09:28:21.311Z,989.56
2018-05-04T09:29:21.501Z,989.64
2018-05-04T09:30:21.698Z,989.29
2018-05-04T09:31:21.890Z,989.44
2018-05-04T09:32:22.084Z,989.49
2018-05-04T09:33:22.280Z,989.41
2018-05-04T09:34:22.473Z,989.36
2018-05-04T09:35:22.671Z,989.30
2018-05-04T09:36:22.861Z,989.42
2018-05-04T09:37:23.129Z,989.37
2018-05-04T09:38:23.259Z,989.40
2018-05-04T09:39:23.447Z,989.27
2018-05-04T09:40:23.641Z,989.40
2018-05-04T09:41:23.835Z,989.55
2018-05-04T09:42:24.035Z,989.44
2018-05-04T09:43:24.253Z,989.24
2018-05-04T09:44:24.423Z,989.30
2018-05-04T09:45:24.618Z,989.46
2018-05-04T09:46:24.814Z,989.22
2018-05-04T09:47:25.008Z,989.20
2018-05-04T09:48:25.212Z,989.29
2018-05-04T09:49:25.434Z,989.43
2018-05-04T09:50:25.569Z,989.35
2018-05-04T09:51:25.761Z,989.33
2018-05-04T09:52:25.954Z,989.49
2018-05-04T09:53:26.148Z,989.40
2018-05-04T09:54:26.340Z,989.48
2018-05-04T09:55:26.539Z,989.42
2018-05-04T09:56:26.730Z,989.40
2018-05-04T09:57:26.929Z,989.27
2018-05-04T09:58:27.118Z,989.25
2018-05-04T09:59:27.311Z,989.35
2018-05-04T10:00:27.505Z,989.34
2018-05-04T10:01:27.698Z,989.24
2018-05-04T10:02:27.891Z,989.16
2018-05-04T10:03:28.104Z,989.23
2018-05-04T10:04:28.277Z,989.31
2018-05-04T10:05:28.474Z,989.19
2018-05-04T10:06:28.661Z,989.31
2018-05-04T10:07:28.853Z,989.35
2018-05-04T10:08:29.047Z,989.50
2018-05-04T10:09:29.267Z,989.37
2018-05-04T10:10:29.430Z,989.48
2018-05-04T10:11:29.625Z,989.21
2018-05-04T10:12:29.817Z,989.38
2018-05-04T10:13:30.009Z,989.44
2018-05-04T10:14:30.202Z,989.47
2018-05-04T10:15:30.436Z,989.29
2018-05-04T10:16:30.589Z,989.25
2018-05-04T10:17:30.779Z,989.15
2018-05-04T10:18:30.972Z,989.37
2018-05-04T10:19:31.165Z,989.22
2018-05-04T10:20:31.357Z,989.33
2018-05-04T10:21:31.550Z,989.38
2018-05-04T10:22:31.740Z,989.23
2018-05-04T10:23:31.935Z,989.25
2018-05-04T10:24:32.129Z,989.33
2018-05-04T10:25:32.318Z,989.37
2018-05-04T10:26:32.510Z,989.16
2018-05-04T10:27:32.703Z,989.18
2018-05-04T10:28:32.896Z,989.36
2018-05-04T10:29:33.087Z,989.37
2018-05-04T10:30:33.278Z,989.19
2018-05-04T10:31:33.471Z,989.12
2018-05-04T10:32:33.663Z,989.15
2018-05-04T10:33:33.855Z,989.08
2018-05-04T10:34:34.047Z,989.04
2018-05-04T10:35:34.239Z,989.22
2018-05-04T10:36:34.435Z,989.12
2018-05-04T10:37:34.625Z,989.29
2018-05-04T10:38:34.918Z,989.34
2018-05-04T10:39:35.011Z,989.32
2018-05-04T10:40:35.199Z,989.35
2018-05-04T10:41:35.390Z,989.21
2018-05-04T10:42:35.586Z,989.21
2018-05-04T10:43:35.772Z,989.33
2018-05-04T10:44:35.964Z,989.16
2018-05-04T10:45:36.153Z,989.27
2018-05-04T10:46:36.345Z,989.26
2018-05-04T10:47:36.536Z,989.35
2018-05-04T10:48:36.726Z,989.23
2018-05-04T10:49:36.919Z,989.62
2018-05-04T10:50:37.111Z,989.11
2018-05-04T10:51:37.304Z,989.25
2018-05-04T10:52:37.502Z,989.39
2018-05-04T10:53:37.688Z,989.28
2018-05-04T10:54:37.881Z,989.47
2018-05-04T10:55:38.071Z,989.33
2018-05-04T10:56:38.262Z,989.36
2018-05-04T10:57:38.455Z,989.30
2018-05-04T10:58:38.646Z,989.30
2018-05-04T10:59:38.837Z,989.22
2018-05-04T11:00:39.030Z,989.21
2018-05-04T11:01:39.220Z,989.39
2018-05-04T11:02:39.412Z,989.31
2018-05-04T11:03:39.602Z,989.16
2018-05-04T11:04:39.793Z,989.23
2018-05-04T11:05:39.984Z,989.25
2018-05-04T11:06:40.178Z,989.05
2018-05-04T11:07:40.369Z,989.12
2018-05-04T11:08:40.561Z,989.26
2018-05-04T11:09:40.754Z,989.33
2018-05-04T11:10:40.943Z,989.13
2018-05-04T11:11:41.136Z,989.18
2018-05-04T11:12:41.329Z,989.26
2018-05-04T11:13:41.520Z,988.87
2018-05-04T11:14:41.711Z,989.09
2018-05-04T11:15:41.906Z,989.01
2018-05-04T11:16:42.094Z,988.95
2018-05-04T11:17:42.289Z,988.95
2018-05-04T11:18:42.476Z,989.07
2018-05-04T11:19:42.667Z,989.15
2018-05-04T11:20:42.860Z,988.99
2018-05-04T11:21:43.051Z,989.05
2018-05-04T11:22:43.245Z,989.07
2018-05-04T11:23:43.435Z,989.04
2018-05-04T11:24:43.627Z,988.98
2018-05-04T11:25:43.815Z,988.92
2018-05-04T11:26:44.009Z,989.12
2018-05-04T11:27:44.200Z,988.83
2018-05-04T11:28:44.389Z,989.13
2018-05-04T11:29:44.581Z,989.02
2018-05-04T11:30:44.772Z,989.10
2018-05-04T11:31:44.963Z,989.02
2018-05-04T11:32:45.154Z,988.95
2018-05-04T11:33:45.345Z,989.03
2018-05-04T11:34:45.533Z,989.03
2018-05-04T11:35:45.725Z,989.18
2018-05-04T11:36:45.916Z,989.02
2018-05-04T11:37:46.106Z,989.12
2018-05-04T11:38:46.345Z,988.94
2018-05-04T11:39:46.487Z,989.02
2018-05-04T11:40:46.676Z,989.00
2018-05-04T11:41:46.868Z,988.99
2018-05-04T11:42:47.061Z,989.25
2018-05-04T11:43:47.249Z,989.02
2018-05-04T11:44:47.440Z,989.01
2018-05-04T11:45:47.630Z,989.02
2018-05-04T11:46:47.822Z,988.99
2018-05-04T11:47:48.013Z,989.02
2018-05-04T11:48:48.205Z,988.93
2018-05-04T11:49:48.394Z,989.13
2018-05-04T11:50:48.585Z,989.10
2018-05-04T11:51:48.776Z,989.11
2018-05-04T11:52:48.967Z,989.00
2018-05-04T11:53:49.159Z,988.93
2018-05-04T11:54:49.349Z,989.07
2018-05-04T11:55:49.539Z,989.06
2018-05-04T11:56:49.740Z,988.98
2018-05-04T11:57:49.931Z,989.11
2018-05-04T11:58:50.121Z,989.01
2018-05-04T11:59:50.313Z,989.05
2018-05-04T12:00:50.502Z,988.99
2018-05-04T12:01:50.697Z,989.18
2018-05-04T12:02:50.885Z,989.21
2018-05-04T12:03:51.074Z,989.27
2018-05-04T12:04:51.350Z,989.18
2018-05-04T12:05:51.452Z,989.18
2018-05-04T12:06:51.656Z,989.07
2018-05-04T12:07:51.847Z,989.02
2018-05-04T12:08:52.037Z,989.17
2018-05-04T12:09:52.228Z,989.11
2018-05-04T12:10:52.505Z,989.06
2018-05-04T12:11:52.608Z,989.21
2018-05-04T12:12:52.798Z,989.15
2018-05-04T12:13:52.987Z,989.21
2018-05-04T12:14:53.178Z,989.30
2018-05-04T12:15:53.365Z,989.16
2018-05-04T12:16:53.556Z,989.11
2018-05-04T12:17:53.744Z,989.22
2018-05-04T12:18:53.934Z,989.25
2018-05-04T12:19:54.124Z,989.19
2018-05-04T12:20:54.315Z,989.23
2018-05-04T12:21:54.505Z,989.35
2018-05-04T12:22:54.777Z,989.31
2018-05-04T12:23:54.883Z,989.07
2018-05-04T12:24:55.074Z,989.06
2018-05-04T12:25:55.265Z,989.10
2018-05-04T12:26:55.455Z,989.23
2018-05-04T12:27:55.649Z,989.11
2018-05-04T12:28:55.836Z,989.07
2018-05-04T12:29:56.025Z,989.17
2018-05-04T12:30:56.217Z,989.27